Impacts TAF Board INFO
FOR SITUATIONAL AWARENESS. NOT TO BE USED FOR FLIGHT PLANNING PURPOSES.
IDs:

KLAS - Las Vegas/McCarran I, NV, US

Issued at 0112 UTC 20 Feb 2018
Updated at 0135 UTC 20 Feb 2018
Potential Impact None Slight Moderate High
Time0056Z 20/02Z 20/03Z 20/04Z 20/05Z 20/06Z 20/07Z 20/08Z 20/09Z 20/10Z 20/11Z 20/12Z 20/13Z 20/14Z>>
Type OBS PRVL PRVL PRVL PRVL PRVL PRVL PRVL PRVL PRVL PRVL PRVL PRVL PRVL
VIS 10 >6 >6 >6 >6 >6 >6 >6 >6 >6 >6 >6 >6 >6
CIG -- -- -- -- -- -- -- -- -- -- -- -- -- --
Cover SCT SCT SCT FEW FEW FEW FEW FEW FEW FEW SKC SKC SKC SKC
FltCat VFR VFR VFR VFR VFR VFR VFR VFR VFR VFR VFR VFR VFR VFR
WX -- -- -- -- -- -- -- -- -- -- -- -- -- --
WDir 300 310 310 280 280 280 280 280 280 280 250 250 250 250
WSpd 12 13 13 11 11 11 11 11 11 11 8 8 8 8
WGst -- 19 19 -- -- -- -- -- -- -- -- -- -- --

Raw TAF
KLAS 200112Z 2001/2106 31013G19KT P6SM SCT100
  FM200400 28011KT P6SM FEW120
  FM201100 25008KT P6SM SKC
  FM201800 07007KT P6SM FEW120
  FM210300 19006KT P6SM SKC


Raw METAR
KLAS 200056Z 30012KT 10SM FEW070 SCT110 09/M18 A2975 RMK AO2 SLP070 VIRGA NE-SE T00891178
KLAS 192356Z 31012KT 10SM SCT070 BKN110 10/M18 A2972 RMK AO2 SLP060 VIRGA NE-SE-SW T01001183 10111 20083 53014
KLAS 192256Z 32016G25KT 10SM SCT070 BKN110 10/M18 A2970 RMK AO2 SLP052 VIRGA ALQDS T01001183

METAR Board
Radar Display
Forecast Discussion

FOR SITUATIONAL AWARENESS. NOT TO BE USED FOR FLIGHT PLANNING PURPOSES.